<?xml version="1.0" encoding="UTF-8" standalone="no" ?>
<gpx xmlns="http://www.topografix.com/GPX/1/1" xmlns:xsi="http://www.w3.org/2001/XMLSchema-instance" xsi:schemaLocation="http://www.topografix.com/GPX/1/1 http://www.topografix.com/GPX/1/1/gpx.xsd" version="1.1" creator="VisuGPX - https://www.visugpx.com">
  <metadata>
    <name>Tour du Néron</name>
  </metadata>
  <trk>
    <name><![CDATA[Tour du Néron_1]]></name>
    <trkseg>
      <trkpt lat="45.21782" lon="5.69356">
        <ele>212.9</ele>
        <extensions>
          <visugpx:TrkExtension xmlns:visugpx="https://www.visugpx.com/editgpx/">
            <visugpx:node>4</visugpx:node>
            </visugpx:TrkExtension>
        </extensions>
      </trkpt>
      <trkpt lat="45.21785" lon="5.69354">
        <ele>212.9</ele>
      </trkpt>
      <trkpt lat="45.21792" lon="5.69347">
        <ele>212.4</ele>
      </trkpt>
      <trkpt lat="45.21794" lon="5.69352">
        <ele>213.5</ele>
      </trkpt>
      <trkpt lat="45.21837" lon="5.69314">
        <ele>212.2</ele>
      </trkpt>
      <trkpt lat="45.21842" lon="5.69313">
        <ele>212.4</ele>
      </trkpt>
      <trkpt lat="45.21904" lon="5.69258">
        <ele>211.7</ele>
      </trkpt>
      <trkpt lat="45.21981" lon="5.69186">
        <ele>209.1</ele>
      </trkpt>
      <trkpt lat="45.22001" lon="5.69169">
        <ele>209.1</ele>
      </trkpt>
      <trkpt lat="45.2201" lon="5.69161">
        <ele>209.87133789062</ele>
        <time>2020-02-01T21:59:22.821Z</time>
      </trkpt>
      <trkpt lat="45.22028" lon="5.69184">
        <ele>210.35415649414</ele>
        <time>2020-02-01T21:59:23.206Z</time>
      </trkpt>
      <trkpt lat="45.22065" lon="5.69235">
        <ele>212.22332763672</ele>
        <time>2020-02-01T21:59:23.609Z</time>
      </trkpt>
      <trkpt lat="45.22071" lon="5.69266">
        <ele>217.75532531738</ele>
        <time>2020-02-01T21:59:24.019Z</time>
      </trkpt>
      <trkpt lat="45.22068" lon="5.69289">
        <ele>223.2389831543</ele>
        <time>2020-02-01T21:59:24.435Z</time>
      </trkpt>
      <trkpt lat="45.22074" lon="5.69292">
        <ele>223.22511291504</ele>
        <time>2020-02-01T21:59:24.853Z</time>
      </trkpt>
      <trkpt lat="45.22106" lon="5.69311">
        <ele>225.04325866699</ele>
        <time>2020-02-01T21:59:25.283Z</time>
      </trkpt>
      <trkpt lat="45.22227" lon="5.69366">
        <ele>224.61503601074</ele>
        <time>2020-02-01T21:59:25.755Z</time>
      </trkpt>
      <trkpt lat="45.22247" lon="5.69368">
        <ele>223.22401428223</ele>
        <time>2020-02-01T21:59:26.233Z</time>
      </trkpt>
      <trkpt lat="45.22288" lon="5.69372">
        <ele>220.87391662598</ele>
        <time>2020-02-01T21:59:26.725Z</time>
      </trkpt>
      <trkpt lat="45.22369" lon="5.69388">
        <ele>213.92088317871</ele>
        <time>2020-02-01T21:59:27.244Z</time>
      </trkpt>
      <trkpt lat="45.22395" lon="5.69394">
        <ele>214.22268676758</ele>
        <time>2020-02-01T21:59:27.772Z</time>
      </trkpt>
      <trkpt lat="45.22477" lon="5.69439">
        <ele>227.31123352051</ele>
        <time>2020-02-01T21:59:28.330Z</time>
      </trkpt>
      <trkpt lat="45.22504" lon="5.69434">
        <ele>225.80516052246</ele>
        <time>2020-02-01T21:59:28.897Z</time>
      </trkpt>
      <trkpt lat="45.2266" lon="5.69367">
        <ele>218.51409912109</ele>
        <time>2020-02-01T21:59:29.518Z</time>
      </trkpt>
      <trkpt lat="45.22702" lon="5.69356">
        <ele>218.00538635254</ele>
        <time>2020-02-01T21:59:30.153Z</time>
      </trkpt>
      <trkpt lat="45.2274" lon="5.69383">
        <ele>222.49584960938</ele>
        <time>2020-02-01T21:59:30.802Z</time>
      </trkpt>
      <trkpt lat="45.22762" lon="5.69419">
        <ele>226.5029296875</ele>
        <time>2020-02-01T21:59:31.463Z</time>
      </trkpt>
      <trkpt lat="45.22827" lon="5.69398">
        <ele>226.18014526367</ele>
        <time>2020-02-01T21:59:32.146Z</time>
      </trkpt>
      <trkpt lat="45.22851" lon="5.69387">
        <ele>225.79397583008</ele>
        <time>2020-02-01T21:59:32.837Z</time>
      </trkpt>
      <trkpt lat="45.22936" lon="5.69361">
        <ele>231.93353271484</ele>
        <time>2020-02-01T21:59:33.557Z</time>
      </trkpt>
      <trkpt lat="45.22936" lon="5.69361">
        <ele>231.93263244629</ele>
        <time>2020-02-01T21:59:34.277Z</time>
      </trkpt>
      <trkpt lat="45.22958" lon="5.69375">
        <ele>234.65106201172</ele>
        <time>2020-02-01T21:59:35.005Z</time>
      </trkpt>
      <trkpt lat="45.2302" lon="5.69334">
        <ele>236.12072753906</ele>
        <time>2020-02-01T21:59:35.756Z</time>
      </trkpt>
      <trkpt lat="45.23039" lon="5.69382">
        <ele>247.61013793945</ele>
        <time>2020-02-01T21:59:36.520Z</time>
      </trkpt>
      <trkpt lat="45.23057" lon="5.69407">
        <ele>260.68225097656</ele>
        <time>2020-02-01T21:59:37.292Z</time>
      </trkpt>
      <trkpt lat="45.23085" lon="5.69419">
        <ele>272.65921020508</ele>
        <time>2020-02-01T21:59:38.074Z</time>
      </trkpt>
      <trkpt lat="45.23109" lon="5.69423">
        <ele>277.55075073242</ele>
        <time>2020-02-01T21:59:38.864Z</time>
      </trkpt>
      <trkpt lat="45.23175" lon="5.69397">
        <ele>261.61636352539</ele>
        <time>2020-02-01T21:59:39.677Z</time>
      </trkpt>
      <trkpt lat="45.23219" lon="5.69402">
        <ele>263.52456665039</ele>
        <time>2020-02-01T21:59:40.505Z</time>
      </trkpt>
      <trkpt lat="45.2327" lon="5.69427">
        <ele>282.49990844727</ele>
        <time>2020-02-01T21:59:41.351Z</time>
      </trkpt>
      <trkpt lat="45.23322" lon="5.6944">
        <ele>284.34521484375</ele>
        <time>2020-02-01T21:59:42.214Z</time>
      </trkpt>
      <trkpt lat="45.23367" lon="5.69438">
        <ele>274.07766723633</ele>
        <time>2020-02-01T21:59:43.093Z</time>
      </trkpt>
      <trkpt lat="45.23389" lon="5.69429">
        <ele>270.44116210938</ele>
        <time>2020-02-01T21:59:43.979Z</time>
      </trkpt>
      <trkpt lat="45.23396" lon="5.69436">
        <ele>272.68740844727</ele>
        <time>2020-02-01T21:59:44.868Z</time>
      </trkpt>
      <trkpt lat="45.23403" lon="5.69481">
        <ele>289.0735168457</ele>
        <time>2020-02-01T21:59:45.768Z</time>
      </trkpt>
      <trkpt lat="45.23396" lon="5.69517">
        <ele>305.66101074219</ele>
        <time>2020-02-01T21:59:46.676Z</time>
      </trkpt>
      <trkpt lat="45.23455" lon="5.69553">
        <ele>322.02188110352</ele>
        <time>2020-02-01T21:59:47.606Z</time>
      </trkpt>
      <trkpt lat="45.2349" lon="5.69552">
        <ele>322.13079833984</ele>
        <time>2020-02-01T21:59:48.548Z</time>
      </trkpt>
      <trkpt lat="45.236" lon="5.69476">
        <ele>291.06958007812</ele>
        <time>2020-02-01T21:59:49.530Z</time>
      </trkpt>
      <trkpt lat="45.23631" lon="5.69465">
        <ele>287.32693481445</ele>
        <time>2020-02-01T21:59:50.523Z</time>
      </trkpt>
      <trkpt lat="45.23681" lon="5.69467">
        <ele>293.04876708984</ele>
        <time>2020-02-01T21:59:51.533Z</time>
      </trkpt>
      <trkpt lat="45.23712" lon="5.69437">
        <ele>285.48886108398</ele>
        <time>2020-02-01T21:59:52.555Z</time>
      </trkpt>
      <trkpt lat="45.23712" lon="5.69437">
        <ele>285.48861694336</ele>
        <time>2020-02-01T21:59:53.577Z</time>
      </trkpt>
      <trkpt lat="45.23714" lon="5.69441">
        <ele>287.01303100586</ele>
        <time>2020-02-01T21:59:54.601Z</time>
      </trkpt>
      <trkpt lat="45.23724" lon="5.6944">
        <ele>287.14498901367</ele>
        <time>2020-02-01T21:59:55.628Z</time>
      </trkpt>
      <trkpt lat="45.23782" lon="5.69445">
        <ele>292.03146362305</ele>
        <time>2020-02-01T21:59:56.674Z</time>
      </trkpt>
      <trkpt lat="45.23839" lon="5.6945">
        <ele>291.14306640625</ele>
        <time>2020-02-01T21:59:57.739Z</time>
      </trkpt>
      <trkpt lat="45.23844" lon="5.69452">
        <ele>291.34704589844</ele>
        <time>2020-02-01T21:59:58.806Z</time>
      </trkpt>
      <trkpt lat="45.23851" lon="5.69451">
        <ele>290.44717407227</ele>
        <time>2020-02-01T21:59:59.875Z</time>
      </trkpt>
      <trkpt lat="45.23871" lon="5.69453">
        <ele>289.49829101562</ele>
        <time>2020-02-01T22:00:00.951Z</time>
      </trkpt>
      <trkpt lat="45.23894" lon="5.69471">
        <ele>295.44924926758</ele>
        <time>2020-02-01T22:00:02.036Z</time>
      </trkpt>
      <trkpt lat="45.23923" lon="5.69504">
        <ele>309.01898193359</ele>
        <time>2020-02-01T22:00:03.133Z</time>
      </trkpt>
      <trkpt lat="45.23937" lon="5.69522">
        <ele>316.2897644043</ele>
        <time>2020-02-01T22:00:04.236Z</time>
      </trkpt>
      <trkpt lat="45.23951" lon="5.69531">
        <ele>320.42907714844</ele>
        <time>2020-02-01T22:00:05.345Z</time>
      </trkpt>
      <trkpt lat="45.23963" lon="5.69534">
        <ele>322.23843383789</ele>
        <time>2020-02-01T22:00:06.458Z</time>
      </trkpt>
      <trkpt lat="45.23974" lon="5.6953">
        <ele>319.92282104492</ele>
        <time>2020-02-01T22:00:07.574Z</time>
      </trkpt>
      <trkpt lat="45.23997" lon="5.69518">
        <ele>313.81585693359</ele>
        <time>2020-02-01T22:00:08.699Z</time>
      </trkpt>
      <trkpt lat="45.2404" lon="5.6949">
        <ele>305.29663085938</ele>
        <time>2020-02-01T22:00:09.839Z</time>
      </trkpt>
      <trkpt lat="45.24049" lon="5.69477">
        <ele>301.70764160156</ele>
        <time>2020-02-01T22:00:10.984Z</time>
      </trkpt>
      <trkpt lat="45.24059" lon="5.69475">
        <ele>300.00973510742</ele>
        <time>2020-02-01T22:00:12.132Z</time>
      </trkpt>
      <trkpt lat="45.24073" lon="5.69481">
        <ele>300.24969482422</ele>
        <time>2020-02-01T22:00:13.285Z</time>
      </trkpt>
      <trkpt lat="45.24097" lon="5.69484">
        <ele>298.12603759766</ele>
        <time>2020-02-01T22:00:14.446Z</time>
      </trkpt>
      <trkpt lat="45.241" lon="5.69481">
        <ele>296.68627929688</ele>
        <time>2020-02-01T22:00:15.608Z</time>
      </trkpt>
      <trkpt lat="45.24103" lon="5.69484">
        <ele>297.33416748047</ele>
        <time>2020-02-01T22:00:16.771Z</time>
      </trkpt>
      <trkpt lat="45.24106" lon="5.69505">
        <ele>304.24502563477</ele>
        <time>2020-02-01T22:00:17.939Z</time>
      </trkpt>
      <trkpt lat="45.24104" lon="5.6952">
        <ele>309.72811889648</ele>
        <time>2020-02-01T22:00:19.111Z</time>
      </trkpt>
      <trkpt lat="45.24099" lon="5.69526">
        <ele>312.24188232422</ele>
        <time>2020-02-01T22:00:20.285Z</time>
      </trkpt>
      <trkpt lat="45.24091" lon="5.69526">
        <ele>312.62582397461</ele>
        <time>2020-02-01T22:00:21.462Z</time>
      </trkpt>
      <trkpt lat="45.24075" lon="5.69532">
        <ele>314.97744750977</ele>
        <time>2020-02-01T22:00:22.644Z</time>
      </trkpt>
      <trkpt lat="45.2407" lon="5.69553">
        <ele>320.7604675293</ele>
        <time>2020-02-01T22:00:23.832Z</time>
      </trkpt>
      <trkpt lat="45.24071" lon="5.69565">
        <ele>324.30178833008</ele>
        <time>2020-02-01T22:00:25.023Z</time>
      </trkpt>
      <trkpt lat="45.24078" lon="5.69577">
        <ele>327.56524658203</ele>
        <time>2020-02-01T22:00:26.217Z</time>
      </trkpt>
      <trkpt lat="45.24089" lon="5.69585">
        <ele>329.43692016602</ele>
        <time>2020-02-01T22:00:27.415Z</time>
      </trkpt>
      <trkpt lat="45.24102" lon="5.69591">
        <ele>330.61273193359</ele>
        <time>2020-02-01T22:00:28.618Z</time>
      </trkpt>
      <trkpt lat="45.2414" lon="5.69596">
        <ele>330.0263671875</ele>
        <time>2020-02-01T22:00:29.834Z</time>
      </trkpt>
      <trkpt lat="45.24167" lon="5.69634">
        <ele>339.48077392578</ele>
        <time>2020-02-01T22:00:31.062Z</time>
      </trkpt>
      <trkpt lat="45.24174" lon="5.6964">
        <ele>340.85748291016</ele>
        <time>2020-02-01T22:00:32.293Z</time>
      </trkpt>
      <trkpt lat="45.24181" lon="5.69645">
        <ele>341.97329711914</ele>
        <time>2020-02-01T22:00:33.527Z</time>
      </trkpt>
      <trkpt lat="45.24199" lon="5.69647">
        <ele>341.32540893555</ele>
        <time>2020-02-01T22:00:34.767Z</time>
      </trkpt>
      <trkpt lat="45.24208" lon="5.69651">
        <ele>341.97329711914</ele>
        <time>2020-02-01T22:00:36.010Z</time>
      </trkpt>
      <trkpt lat="45.24222" lon="5.6966">
        <ele>344.45620727539</ele>
        <time>2020-02-01T22:00:37.258Z</time>
      </trkpt>
      <trkpt lat="45.24228" lon="5.69667">
        <ele>346.65182495117</ele>
        <time>2020-02-01T22:00:38.509Z</time>
      </trkpt>
      <trkpt lat="45.24234" lon="5.69681">
        <ele>351.11508178711</ele>
        <time>2020-02-01T22:00:39.763Z</time>
      </trkpt>
      <trkpt lat="45.24238" lon="5.697">
        <ele>357.22207641602</ele>
        <time>2020-02-01T22:00:41.022Z</time>
      </trkpt>
      <trkpt lat="45.24247" lon="5.69776">
        <ele>380.13241577148</ele>
        <time>2020-02-01T22:00:42.299Z</time>
      </trkpt>
      <trkpt lat="45.24251" lon="5.69792">
        <ele>384.73965454102</ele>
        <time>2020-02-01T22:00:43.580Z</time>
      </trkpt>
      <trkpt lat="45.24267" lon="5.69837">
        <ele>397.69750976562</ele>
        <time>2020-02-01T22:00:44.873Z</time>
      </trkpt>
      <trkpt lat="45.24276" lon="5.69852">
        <ele>402.01678466797</ele>
        <time>2020-02-01T22:00:46.171Z</time>
      </trkpt>
      <trkpt lat="45.24284" lon="5.6986">
        <ele>404.32040405273</ele>
        <time>2020-02-01T22:00:47.472Z</time>
      </trkpt>
      <trkpt lat="45.24314" lon="5.69877">
        <ele>407.02697753906</ele>
        <time>2020-02-01T22:00:48.784Z</time>
      </trkpt>
      <trkpt lat="45.24326" lon="5.69881">
        <ele>406.73901367188</ele>
        <time>2020-02-01T22:00:50.100Z</time>
      </trkpt>
      <trkpt lat="45.24333" lon="5.69886">
        <ele>407.33892822266</ele>
        <time>2020-02-01T22:00:51.418Z</time>
      </trkpt>
      <trkpt lat="45.24341" lon="5.69889">
        <ele>407.0751953125</ele>
        <time>2020-02-01T22:00:52.739Z</time>
      </trkpt>
      <trkpt lat="45.24363" lon="5.69906">
        <ele>408.10702514648</ele>
        <time>2020-02-01T22:00:54.069Z</time>
      </trkpt>
      <trkpt lat="45.24364" lon="5.69935">
        <ele>414.25</ele>
        <time>2020-02-01T22:00:55.405Z</time>
      </trkpt>
      <trkpt lat="45.24356" lon="5.69971">
        <ele>425.37924194336</ele>
        <time>2020-02-01T22:00:56.750Z</time>
      </trkpt>
      <trkpt lat="45.24355" lon="5.69984">
        <ele>430.74234008789</ele>
        <time>2020-02-01T22:00:58.098Z</time>
      </trkpt>
      <trkpt lat="45.2436" lon="5.7003">
        <ele>447.87548828125</ele>
        <time>2020-02-01T22:00:59.457Z</time>
      </trkpt>
      <trkpt lat="45.24368" lon="5.70052">
        <ele>455.79336547852</ele>
        <time>2020-02-01T22:01:00.822Z</time>
      </trkpt>
      <trkpt lat="45.24376" lon="5.70062">
        <ele>459.25308227539</ele>
        <time>2020-02-01T22:01:02.191Z</time>
      </trkpt>
      <trkpt lat="45.24384" lon="5.70069">
        <ele>461.2756652832</ele>
        <time>2020-02-01T22:01:03.563Z</time>
      </trkpt>
      <trkpt lat="45.24413" lon="5.70082">
        <ele>462.3957824707</ele>
        <time>2020-02-01T22:01:04.945Z</time>
      </trkpt>
      <trkpt lat="45.2443" lon="5.70083">
        <ele>461.01602172852</ele>
        <time>2020-02-01T22:01:06.333Z</time>
      </trkpt>
      <trkpt lat="45.24442" lon="5.70076">
        <ele>456.52877807617</ele>
        <time>2020-02-01T22:01:07.725Z</time>
      </trkpt>
      <trkpt lat="45.24458" lon="5.70073">
        <ele>453.43328857422</ele>
        <time>2020-02-01T22:01:09.122Z</time>
      </trkpt>
      <trkpt lat="45.24474" lon="5.70077">
        <ele>449.373046875</ele>
        <time>2020-02-01T22:01:10.525Z</time>
      </trkpt>
      <trkpt lat="45.24487" lon="5.70085">
        <ele>446.93743896484</ele>
        <time>2020-02-01T22:01:11.933Z</time>
      </trkpt>
      <trkpt lat="45.24494" lon="5.70094">
        <ele>447.76531982422</ele>
        <time>2020-02-01T22:01:13.344Z</time>
      </trkpt>
      <trkpt lat="45.24501" lon="5.70111">
        <ele>452.24057006836</ele>
        <time>2020-02-01T22:01:14.759Z</time>
      </trkpt>
      <trkpt lat="45.24511" lon="5.70154">
        <ele>468.82550048828</ele>
        <time>2020-02-01T22:01:16.185Z</time>
      </trkpt>
      <trkpt lat="45.24526" lon="5.70179">
        <ele>475.60437011719</ele>
        <time>2020-02-01T22:01:17.619Z</time>
      </trkpt>
      <trkpt lat="45.24548" lon="5.70201">
        <ele>477.18814086914</ele>
        <time>2020-02-01T22:01:19.062Z</time>
      </trkpt>
      <trkpt lat="45.24561" lon="5.70233">
        <ele>490.77767944336</ele>
        <time>2020-02-01T22:01:20.513Z</time>
      </trkpt>
      <trkpt lat="45.2458" lon="5.70259">
        <ele>501.07507324219</ele>
        <time>2020-02-01T22:01:21.973Z</time>
      </trkpt>
      <trkpt lat="45.24591" lon="5.70271">
        <ele>504.53048706055</ele>
        <time>2020-02-01T22:01:23.438Z</time>
      </trkpt>
      <trkpt lat="45.246" lon="5.70276">
        <ele>503.42669677734</ele>
        <time>2020-02-01T22:01:24.906Z</time>
      </trkpt>
      <trkpt lat="45.24622" lon="5.7028">
        <ele>493.8251953125</ele>
        <time>2020-02-01T22:01:26.381Z</time>
      </trkpt>
      <trkpt lat="45.24633" lon="5.7029">
        <ele>495.68310546875</ele>
        <time>2020-02-01T22:01:27.861Z</time>
      </trkpt>
      <trkpt lat="45.24671" lon="5.70337">
        <ele>507.46844482422</ele>
        <time>2020-02-01T22:01:29.358Z</time>
      </trkpt>
      <trkpt lat="45.24687" lon="5.70349">
        <ele>506.31665039062</ele>
        <time>2020-02-01T22:01:30.861Z</time>
      </trkpt>
      <trkpt lat="45.24722" lon="5.70361">
        <ele>493.76647949219</ele>
        <time>2020-02-01T22:01:32.376Z</time>
      </trkpt>
      <trkpt lat="45.24752" lon="5.7038">
        <ele>487.81546020508</ele>
        <time>2020-02-01T22:01:33.902Z</time>
      </trkpt>
      <trkpt lat="45.24798" lon="5.70421">
        <ele>491.6169128418</ele>
        <time>2020-02-01T22:01:35.446Z</time>
      </trkpt>
      <trkpt lat="45.2482" lon="5.70435">
        <ele>485.52191162109</ele>
        <time>2020-02-01T22:01:36.998Z</time>
      </trkpt>
      <trkpt lat="45.24842" lon="5.70461">
        <ele>489.36126708984</ele>
        <time>2020-02-01T22:01:38.559Z</time>
      </trkpt>
      <trkpt lat="45.24855" lon="5.7047">
        <ele>486.36178588867</ele>
        <time>2020-02-01T22:01:40.125Z</time>
      </trkpt>
      <trkpt lat="45.24875" lon="5.70477">
        <ele>475.25164794922</ele>
        <time>2020-02-01T22:01:41.698Z</time>
      </trkpt>
      <trkpt lat="45.2489" lon="5.70495">
        <ele>476.19497680664</ele>
        <time>2020-02-01T22:01:43.278Z</time>
      </trkpt>
      <trkpt lat="45.24907" lon="5.7052">
        <ele>480.63421630859</ele>
        <time>2020-02-01T22:01:44.866Z</time>
      </trkpt>
      <trkpt lat="45.24942" lon="5.70587">
        <ele>492.71560668945</ele>
        <time>2020-02-01T22:01:46.473Z</time>
      </trkpt>
      <trkpt lat="45.24967" lon="5.70663">
        <ele>500.06558227539</ele>
        <time>2020-02-01T22:01:48.100Z</time>
      </trkpt>
      <trkpt lat="45.24969" lon="5.70685">
        <ele>500.83346557617</ele>
        <time>2020-02-01T22:01:49.732Z</time>
      </trkpt>
      <trkpt lat="45.24968" lon="5.70718">
        <ele>503.61700439453</ele>
        <time>2020-02-01T22:01:51.372Z</time>
      </trkpt>
      <trkpt lat="45.24962" lon="5.70816">
        <ele>497.69317626953</ele>
        <time>2020-02-01T22:01:53.035Z</time>
      </trkpt>
      <trkpt lat="45.24962" lon="5.70821">
        <ele>497.68502807617</ele>
        <time>2020-02-01T22:01:54.699Z</time>
      </trkpt>
      <trkpt lat="45.24962" lon="5.70821">
        <ele>497.68569946289</ele>
        <time>2020-02-01T22:01:56.363Z</time>
      </trkpt>
      <trkpt lat="45.24948" lon="5.70866">
        <ele>504.29592895508</ele>
        <time>2020-02-01T22:01:58.039Z</time>
      </trkpt>
      <trkpt lat="45.24946" lon="5.70837">
        <ele>506.51553344727</ele>
        <time>2020-02-01T22:01:59.722Z</time>
      </trkpt>
      <trkpt lat="45.24937" lon="5.70788">
        <ele>513.75622558594</ele>
        <time>2020-02-01T22:02:01.417Z</time>
      </trkpt>
      <trkpt lat="45.2492" lon="5.70743">
        <ele>526.77178955078</ele>
        <time>2020-02-01T22:02:03.124Z</time>
      </trkpt>
      <trkpt lat="45.24908" lon="5.70717">
        <ele>535.25622558594</ele>
        <time>2020-02-01T22:02:04.838Z</time>
      </trkpt>
      <trkpt lat="45.24899" lon="5.70686">
        <ele>538.25573730469</ele>
        <time>2020-02-01T22:02:06.560Z</time>
      </trkpt>
      <trkpt lat="45.24889" lon="5.70659">
        <ele>542.03509521484</ele>
        <time>2020-02-01T22:02:08.289Z</time>
      </trkpt>
      <trkpt lat="45.24872" lon="5.70632">
        <ele>549.56457519531</ele>
        <time>2020-02-01T22:02:10.027Z</time>
      </trkpt>
      <trkpt lat="45.24861" lon="5.70619">
        <ele>553.31994628906</ele>
        <time>2020-02-01T22:02:11.770Z</time>
      </trkpt>
      <trkpt lat="45.24848" lon="5.70608">
        <ele>559.06701660156</ele>
        <time>2020-02-01T22:02:13.518Z</time>
      </trkpt>
      <trkpt lat="45.24839" lon="5.70604">
        <ele>564.13018798828</ele>
        <time>2020-02-01T22:02:15.269Z</time>
      </trkpt>
      <trkpt lat="45.24826" lon="5.70592">
        <ele>569.57727050781</ele>
        <time>2020-02-01T22:02:17.025Z</time>
      </trkpt>
      <trkpt lat="45.24816" lon="5.70577">
        <ele>572.03686523438</ele>
        <time>2020-02-01T22:02:18.786Z</time>
      </trkpt>
      <trkpt lat="45.2479" lon="5.7056">
        <ele>585.94189453125</ele>
        <time>2020-02-01T22:02:20.556Z</time>
      </trkpt>
      <trkpt lat="45.24783" lon="5.70553">
        <ele>589.67639160156</ele>
        <time>2020-02-01T22:02:22.329Z</time>
      </trkpt>
      <trkpt lat="45.24765" lon="5.70519">
        <ele>585.19415283203</ele>
        <time>2020-02-01T22:02:24.112Z</time>
      </trkpt>
      <trkpt lat="45.24746" lon="5.705">
        <ele>590.20935058594</ele>
        <time>2020-02-01T22:02:25.903Z</time>
      </trkpt>
      <trkpt lat="45.24729" lon="5.7049">
        <ele>598.63885498047</ele>
        <time>2020-02-01T22:02:27.700Z</time>
      </trkpt>
      <trkpt lat="45.24718" lon="5.70489">
        <ele>607.42138671875</ele>
        <time>2020-02-01T22:02:29.501Z</time>
      </trkpt>
      <trkpt lat="45.24705" lon="5.70491">
        <ele>618.14270019531</ele>
        <time>2020-02-01T22:02:31.306Z</time>
      </trkpt>
      <trkpt lat="45.24675" lon="5.70487">
        <ele>635.22784423828</ele>
        <time>2020-02-01T22:02:33.121Z</time>
      </trkpt>
      <trkpt lat="45.24667" lon="5.7049">
        <ele>642.17468261719</ele>
        <time>2020-02-01T22:02:34.939Z</time>
      </trkpt>
      <trkpt lat="45.24641" lon="5.7051">
        <ele>666.06683349609</ele>
        <time>2020-02-01T22:02:36.767Z</time>
      </trkpt>
      <trkpt lat="45.24627" lon="5.70525">
        <ele>678.82696533203</ele>
        <time>2020-02-01T22:02:38.601Z</time>
      </trkpt>
      <trkpt lat="45.24612" lon="5.7055">
        <ele>694.55993652344</ele>
        <time>2020-02-01T22:02:40.442Z</time>
      </trkpt>
      <trkpt lat="45.24599" lon="5.70565">
        <ele>704.23193359375</ele>
        <time>2020-02-01T22:02:42.289Z</time>
      </trkpt>
      <trkpt lat="45.24583" lon="5.70564">
        <ele>709.47509765625</ele>
        <time>2020-02-01T22:02:44.141Z</time>
      </trkpt>
      <trkpt lat="45.24561" lon="5.70572">
        <ele>719.60070800781</ele>
        <time>2020-02-01T22:02:46.001Z</time>
      </trkpt>
      <trkpt lat="45.24548" lon="5.70571">
        <ele>723.36804199219</ele>
        <time>2020-02-01T22:02:47.865Z</time>
      </trkpt>
      <trkpt lat="45.24544" lon="5.70579">
        <ele>726.85467529297</ele>
        <time>2020-02-01T22:02:49.732Z</time>
      </trkpt>
      <trkpt lat="45.24574" lon="5.70606">
        <ele>725.33575439453</ele>
        <time>2020-02-01T22:02:51.610Z</time>
      </trkpt>
      <trkpt lat="45.24596" lon="5.70632">
        <ele>725.95959472656</ele>
        <time>2020-02-01T22:02:53.498Z</time>
      </trkpt>
      <trkpt lat="45.24615" lon="5.70648">
        <ele>720.20330810547</ele>
        <time>2020-02-01T22:02:55.393Z</time>
      </trkpt>
      <trkpt lat="45.24633" lon="5.70649">
        <ele>713.74066162109</ele>
        <time>2020-02-01T22:02:57.294Z</time>
      </trkpt>
      <trkpt lat="45.24639" lon="5.70653">
        <ele>710.28527832031</ele>
        <time>2020-02-01T22:02:59.198Z</time>
      </trkpt>
      <trkpt lat="45.24626" lon="5.70762">
        <ele>697.38189697266</ele>
        <time>2020-02-01T22:03:01.128Z</time>
      </trkpt>
      <trkpt lat="45.24617" lon="5.7079">
        <ele>693.42254638672</ele>
        <time>2020-02-01T22:03:03.065Z</time>
      </trkpt>
      <trkpt lat="45.24604" lon="5.70819">
        <ele>694.04144287109</ele>
        <time>2020-02-01T22:03:05.010Z</time>
      </trkpt>
      <trkpt lat="45.24592" lon="5.70831">
        <ele>697.78485107422</ele>
        <time>2020-02-01T22:03:06.960Z</time>
      </trkpt>
      <trkpt lat="45.24583" lon="5.70847">
        <ele>699.14807128906</ele>
        <time>2020-02-01T22:03:08.915Z</time>
      </trkpt>
      <trkpt lat="45.24569" lon="5.70887">
        <ele>698.86645507812</ele>
        <time>2020-02-01T22:03:10.880Z</time>
      </trkpt>
      <trkpt lat="45.24562" lon="5.70899">
        <ele>699.07043457031</ele>
        <time>2020-02-01T22:03:12.849Z</time>
      </trkpt>
      <trkpt lat="45.24553" lon="5.70906">
        <ele>702.5361328125</ele>
        <time>2020-02-01T22:03:14.821Z</time>
      </trkpt>
      <trkpt lat="45.24544" lon="5.70921">
        <ele>704.23504638672</ele>
        <time>2020-02-01T22:03:16.798Z</time>
      </trkpt>
      <trkpt lat="45.24536" lon="5.70944">
        <ele>703.73114013672</ele>
        <time>2020-02-01T22:03:18.781Z</time>
      </trkpt>
      <trkpt lat="45.24533" lon="5.70968">
        <ele>699.22906494141</ele>
        <time>2020-02-01T22:03:20.770Z</time>
      </trkpt>
      <trkpt lat="45.2453" lon="5.70978">
        <ele>698.74035644531</ele>
        <time>2020-02-01T22:03:22.761Z</time>
      </trkpt>
      <trkpt lat="45.2452" lon="5.70986">
        <ele>703.53955078125</ele>
        <time>2020-02-01T22:03:24.756Z</time>
      </trkpt>
      <trkpt lat="45.24517" lon="5.70995">
        <ele>703.39556884766</ele>
        <time>2020-02-01T22:03:26.753Z</time>
      </trkpt>
      <trkpt lat="45.24504" lon="5.71051">
        <ele>701.51928710938</ele>
        <time>2020-02-01T22:03:28.764Z</time>
      </trkpt>
      <trkpt lat="45.2449" lon="5.71071">
        <ele>710.87963867188</ele>
        <time>2020-02-01T22:03:30.782Z</time>
      </trkpt>
      <trkpt lat="45.24483" lon="5.71086">
        <ele>714.83166503906</ele>
        <time>2020-02-01T22:03:32.804Z</time>
      </trkpt>
      <trkpt lat="45.2448" lon="5.71102">
        <ele>715.34759521484</ele>
        <time>2020-02-01T22:03:34.830Z</time>
      </trkpt>
      <trkpt lat="45.24479" lon="5.7113">
        <ele>713.34393310547</ele>
        <time>2020-02-01T22:03:36.863Z</time>
      </trkpt>
      <trkpt lat="45.24486" lon="5.71148">
        <ele>706.16180419922</ele>
        <time>2020-02-01T22:03:38.900Z</time>
      </trkpt>
      <trkpt lat="45.24499" lon="5.71166">
        <ele>694.46374511719</ele>
        <time>2020-02-01T22:03:40.944Z</time>
      </trkpt>
      <trkpt lat="45.24497" lon="5.71176">
        <ele>694.38153076172</ele>
        <time>2020-02-01T22:03:42.990Z</time>
      </trkpt>
      <trkpt lat="45.24461" lon="5.7124">
        <ele>706.85852050781</ele>
        <time>2020-02-01T22:03:45.055Z</time>
      </trkpt>
      <trkpt lat="45.24439" lon="5.71283">
        <ele>705.98986816406</ele>
        <time>2020-02-01T22:03:47.133Z</time>
      </trkpt>
      <trkpt lat="45.24426" lon="5.7132">
        <ele>698.40710449219</ele>
        <time>2020-02-01T22:03:49.220Z</time>
      </trkpt>
      <trkpt lat="45.24419" lon="5.7133">
        <ele>698.49108886719</ele>
        <time>2020-02-01T22:03:51.311Z</time>
      </trkpt>
      <trkpt lat="45.24401" lon="5.71347">
        <ele>703.658203125</ele>
        <time>2020-02-01T22:03:53.409Z</time>
      </trkpt>
      <trkpt lat="45.24392" lon="5.71361">
        <ele>704.66607666016</ele>
        <time>2020-02-01T22:03:55.511Z</time>
      </trkpt>
      <trkpt lat="45.24383" lon="5.71383">
        <ele>702.79437255859</ele>
        <time>2020-02-01T22:03:57.619Z</time>
      </trkpt>
      <trkpt lat="45.24354" lon="5.71439">
        <ele>693.09564208984</ele>
        <time>2020-02-01T22:03:59.744Z</time>
      </trkpt>
      <trkpt lat="45.24307" lon="5.71491">
        <ele>697.6796875</ele>
        <time>2020-02-01T22:04:01.889Z</time>
      </trkpt>
      <trkpt lat="45.24279" lon="5.715">
        <ele>709.38604736328</ele>
        <time>2020-02-01T22:04:04.043Z</time>
      </trkpt>
      <trkpt lat="45.24269" lon="5.71505">
        <ele>712.56549072266</ele>
        <time>2020-02-01T22:04:06.201Z</time>
      </trkpt>
      <trkpt lat="45.24259" lon="5.71515">
        <ele>713.88531494141</ele>
        <time>2020-02-01T22:04:08.363Z</time>
      </trkpt>
      <trkpt lat="45.24252" lon="5.71527">
        <ele>713.36083984375</ele>
        <time>2020-02-01T22:04:10.529Z</time>
      </trkpt>
      <trkpt lat="45.24243" lon="5.71562">
        <ele>705.63226318359</ele>
        <time>2020-02-01T22:04:12.703Z</time>
      </trkpt>
      <trkpt lat="45.2423" lon="5.7159">
        <ele>701.06829833984</ele>
        <time>2020-02-01T22:04:14.885Z</time>
      </trkpt>
      <trkpt lat="45.24202" lon="5.71633">
        <ele>696.71313476562</ele>
        <time>2020-02-01T22:04:17.081Z</time>
      </trkpt>
      <trkpt lat="45.24194" lon="5.71642">
        <ele>696.29919433594</ele>
        <time>2020-02-01T22:04:19.280Z</time>
      </trkpt>
      <trkpt lat="45.24185" lon="5.71649">
        <ele>697.69097900391</ele>
        <time>2020-02-01T22:04:21.483Z</time>
      </trkpt>
      <trkpt lat="45.24176" lon="5.71652">
        <ele>700.57049560547</ele>
        <time>2020-02-01T22:04:23.689Z</time>
      </trkpt>
      <trkpt lat="45.2417" lon="5.7166">
        <ele>700.25854492188</ele>
        <time>2020-02-01T22:04:25.898Z</time>
      </trkpt>
      <trkpt lat="45.24147" lon="5.71662">
        <ele>709.12841796875</ele>
        <time>2020-02-01T22:04:28.114Z</time>
      </trkpt>
      <trkpt lat="45.24141" lon="5.71666">
        <ele>709.46441650391</ele>
        <time>2020-02-01T22:04:30.333Z</time>
      </trkpt>
      <trkpt lat="45.24131" lon="5.71686">
        <ele>703.9453125</ele>
        <time>2020-02-01T22:04:32.557Z</time>
      </trkpt>
      <trkpt lat="45.24126" lon="5.71692">
        <ele>702.97271728516</ele>
        <time>2020-02-01T22:04:34.784Z</time>
      </trkpt>
      <trkpt lat="45.24085" lon="5.7173">
        <ele>701.48840332031</ele>
        <time>2020-02-01T22:04:37.027Z</time>
      </trkpt>
      <trkpt lat="45.24068" lon="5.71739">
        <ele>704.47589111328</ele>
        <time>2020-02-01T22:04:39.276Z</time>
      </trkpt>
      <trkpt lat="45.24024" lon="5.71754">
        <ele>709.77581787109</ele>
        <time>2020-02-01T22:04:41.540Z</time>
      </trkpt>
      <trkpt lat="45.24008" lon="5.71766">
        <ele>708.66833496094</ele>
        <time>2020-02-01T22:04:43.810Z</time>
      </trkpt>
      <trkpt lat="45.24" lon="5.71768">
        <ele>709.29223632812</ele>
        <time>2020-02-01T22:04:46.083Z</time>
      </trkpt>
      <trkpt lat="45.23964" lon="5.7177">
        <ele>715.62719726562</ele>
        <time>2020-02-01T22:04:48.368Z</time>
      </trkpt>
      <trkpt lat="45.23958" lon="5.71774">
        <ele>714.52075195312</ele>
        <time>2020-02-01T22:04:50.655Z</time>
      </trkpt>
      <trkpt lat="45.23942" lon="5.71791">
        <ele>708.73614501953</ele>
        <time>2020-02-01T22:04:52.949Z</time>
      </trkpt>
      <trkpt lat="45.23939" lon="5.71794">
        <ele>708.10205078125</ele>
        <time>2020-02-01T22:04:55.244Z</time>
      </trkpt>
      <trkpt lat="45.23939" lon="5.71794">
        <ele>708.10046386719</ele>
        <time>2020-02-01T22:04:57.539Z</time>
      </trkpt>
      <trkpt lat="45.23939" lon="5.71794">
        <ele>708.10180664062</ele>
        <time>2020-02-01T22:04:59.834Z</time>
      </trkpt>
      <trkpt lat="45.23927" lon="5.71802">
        <ele>707.33392333984</ele>
        <time>2020-02-01T22:05:02.133Z</time>
      </trkpt>
      <trkpt lat="45.2392" lon="5.71812">
        <ele>705.14691162109</ele>
        <time>2020-02-01T22:05:04.436Z</time>
      </trkpt>
      <trkpt lat="45.23906" lon="5.71822">
        <ele>704.57104492188</ele>
        <time>2020-02-01T22:05:06.744Z</time>
      </trkpt>
      <trkpt lat="45.23872" lon="5.7183">
        <ele>706.71655273438</ele>
        <time>2020-02-01T22:05:09.063Z</time>
      </trkpt>
      <trkpt lat="45.23838" lon="5.71832">
        <ele>711.15582275391</ele>
        <time>2020-02-01T22:05:11.394Z</time>
      </trkpt>
      <trkpt lat="45.23831" lon="5.71837">
        <ele>710.08795166016</ele>
        <time>2020-02-01T22:05:13.727Z</time>
      </trkpt>
      <trkpt lat="45.23815" lon="5.71842">
        <ele>709.05474853516</ele>
        <time>2020-02-01T22:05:16.066Z</time>
      </trkpt>
      <trkpt lat="45.23804" lon="5.71856">
        <ele>702.92376708984</ele>
        <time>2020-02-01T22:05:18.410Z</time>
      </trkpt>
      <trkpt lat="45.23792" lon="5.71861">
        <ele>701.36791992188</ele>
        <time>2020-02-01T22:05:20.758Z</time>
      </trkpt>
      <trkpt lat="45.23719" lon="5.71867">
        <ele>707.67926025391</ele>
        <time>2020-02-01T22:05:23.130Z</time>
      </trkpt>
      <trkpt lat="45.23643" lon="5.71882">
        <ele>712.08251953125</ele>
        <time>2020-02-01T22:05:25.528Z</time>
      </trkpt>
      <trkpt lat="45.23625" lon="5.7189">
        <ele>711.36346435547</ele>
        <time>2020-02-01T22:05:27.932Z</time>
      </trkpt>
      <trkpt lat="45.23578" lon="5.71918">
        <ele>706.24035644531</ele>
        <time>2020-02-01T22:05:30.353Z</time>
      </trkpt>
      <trkpt lat="45.23551" lon="5.71925">
        <ele>707.80633544922</ele>
        <time>2020-02-01T22:05:32.783Z</time>
      </trkpt>
      <trkpt lat="45.23503" lon="5.71934">
        <ele>705.65405273438</ele>
        <time>2020-02-01T22:05:35.229Z</time>
      </trkpt>
      <trkpt lat="45.23485" lon="5.71933">
        <ele>704.91021728516</ele>
        <time>2020-02-01T22:05:37.681Z</time>
      </trkpt>
      <trkpt lat="45.23426" lon="5.71918">
        <ele>705.974609375</ele>
        <time>2020-02-01T22:05:40.153Z</time>
      </trkpt>
      <trkpt lat="45.23393" lon="5.71906">
        <ele>708.04486083984</ele>
        <time>2020-02-01T22:05:42.637Z</time>
      </trkpt>
      <trkpt lat="45.23349" lon="5.71925">
        <ele>702.34875488281</ele>
        <time>2020-02-01T22:05:45.136Z</time>
      </trkpt>
      <trkpt lat="45.23272" lon="5.71927">
        <ele>694.58190917969</ele>
        <time>2020-02-01T22:05:47.661Z</time>
      </trkpt>
      <trkpt lat="45.23239" lon="5.71922">
        <ele>693.19342041016</ele>
        <time>2020-02-01T22:05:50.197Z</time>
      </trkpt>
      <trkpt lat="45.23212" lon="5.71936">
        <ele>684.76440429688</ele>
        <time>2020-02-01T22:05:52.742Z</time>
      </trkpt>
      <trkpt lat="45.23178" lon="5.71949">
        <ele>678.29748535156</ele>
        <time>2020-02-01T22:05:55.299Z</time>
      </trkpt>
      <trkpt lat="45.23148" lon="5.71954">
        <ele>674.998046875</ele>
        <time>2020-02-01T22:05:57.866Z</time>
      </trkpt>
      <trkpt lat="45.23088" lon="5.71951">
        <ele>665.953125</ele>
        <time>2020-02-01T22:06:00.453Z</time>
      </trkpt>
      <trkpt lat="45.23036" lon="5.71935">
        <ele>660.76995849609</ele>
        <time>2020-02-01T22:06:03.058Z</time>
      </trkpt>
      <trkpt lat="45.22993" lon="5.71901">
        <ele>662.71368408203</ele>
        <time>2020-02-01T22:06:05.679Z</time>
      </trkpt>
      <trkpt lat="45.22955" lon="5.71884">
        <ele>659.86975097656</ele>
        <time>2020-02-01T22:06:08.314Z</time>
      </trkpt>
      <trkpt lat="45.22914" lon="5.71875">
        <ele>651.59112548828</ele>
        <time>2020-02-01T22:06:10.963Z</time>
      </trkpt>
      <trkpt lat="45.22884" lon="5.71873">
        <ele>644.48828125</ele>
        <time>2020-02-01T22:06:13.622Z</time>
      </trkpt>
      <trkpt lat="45.22826" lon="5.71861">
        <ele>638.96209716797</ele>
        <time>2020-02-01T22:06:16.300Z</time>
      </trkpt>
      <trkpt lat="45.22788" lon="5.71837">
        <ele>638.48724365234</ele>
        <time>2020-02-01T22:06:18.992Z</time>
      </trkpt>
      <trkpt lat="45.22767" lon="5.71834">
        <ele>634.31195068359</ele>
        <time>2020-02-01T22:06:21.691Z</time>
      </trkpt>
      <trkpt lat="45.22732" lon="5.71813">
        <ele>630.61657714844</ele>
        <time>2020-02-01T22:06:24.403Z</time>
      </trkpt>
      <trkpt lat="45.22702" lon="5.71792">
        <ele>628.55224609375</ele>
        <time>2020-02-01T22:06:27.126Z</time>
      </trkpt>
      <trkpt lat="45.22641" lon="5.71739">
        <ele>627.37078857422</ele>
        <time>2020-02-01T22:06:29.873Z</time>
      </trkpt>
      <trkpt lat="45.22629" lon="5.71735">
        <ele>625.69110107422</ele>
        <time>2020-02-01T22:06:32.624Z</time>
      </trkpt>
      <trkpt lat="45.22623" lon="5.71742">
        <ele>622.5205078125</ele>
        <time>2020-02-01T22:06:35.377Z</time>
      </trkpt>
      <trkpt lat="45.2262" lon="5.71693">
        <ele>631.14440917969</ele>
        <time>2020-02-01T22:06:38.142Z</time>
      </trkpt>
      <trkpt lat="45.22609" lon="5.71624">
        <ele>639.88909912109</ele>
        <time>2020-02-01T22:06:40.924Z</time>
      </trkpt>
      <trkpt lat="45.22597" lon="5.71591">
        <ele>643.57073974609</ele>
        <time>2020-02-01T22:06:43.714Z</time>
      </trkpt>
      <trkpt lat="45.22585" lon="5.71567">
        <ele>645.4423828125</ele>
        <time>2020-02-01T22:06:46.511Z</time>
      </trkpt>
      <trkpt lat="45.22566" lon="5.7154">
        <ele>645.80419921875</ele>
        <time>2020-02-01T22:06:49.317Z</time>
      </trkpt>
      <trkpt lat="45.22564" lon="5.71535">
        <ele>646.12817382812</ele>
        <time>2020-02-01T22:06:52.125Z</time>
      </trkpt>
      <trkpt lat="45.22564" lon="5.71529">
        <ele>647.06402587891</ele>
        <time>2020-02-01T22:06:54.934Z</time>
      </trkpt>
      <trkpt lat="45.22556" lon="5.7152">
        <ele>646.64410400391</ele>
        <time>2020-02-01T22:06:57.746Z</time>
      </trkpt>
      <trkpt lat="45.2255" lon="5.7151">
        <ele>646.83605957031</ele>
        <time>2020-02-01T22:07:00.562Z</time>
      </trkpt>
      <trkpt lat="45.22516" lon="5.71441">
        <ele>657.23358154297</ele>
        <time>2020-02-01T22:07:03.397Z</time>
      </trkpt>
      <trkpt lat="45.22508" lon="5.71429">
        <ele>660.24749755859</ele>
        <time>2020-02-01T22:07:06.236Z</time>
      </trkpt>
      <trkpt lat="45.2248" lon="5.71407">
        <ele>663.0166015625</ele>
        <time>2020-02-01T22:07:09.086Z</time>
      </trkpt>
      <trkpt lat="45.22442" lon="5.71367">
        <ele>670.53698730469</ele>
        <time>2020-02-01T22:07:11.952Z</time>
      </trkpt>
      <trkpt lat="45.22426" lon="5.7136">
        <ele>669.63714599609</ele>
        <time>2020-02-01T22:07:14.823Z</time>
      </trkpt>
      <trkpt lat="45.22401" lon="5.71366">
        <ele>661.11853027344</ele>
        <time>2020-02-01T22:07:17.703Z</time>
      </trkpt>
      <trkpt lat="45.22384" lon="5.71375">
        <ele>653.25988769531</ele>
        <time>2020-02-01T22:07:20.589Z</time>
      </trkpt>
      <trkpt lat="45.22351" lon="5.71371">
        <ele>644.73303222656</ele>
        <time>2020-02-01T22:07:23.486Z</time>
      </trkpt>
      <trkpt lat="45.22324" lon="5.71362">
        <ele>640.19775390625</ele>
        <time>2020-02-01T22:07:26.392Z</time>
      </trkpt>
      <trkpt lat="45.22288" lon="5.71339">
        <ele>638.73376464844</ele>
        <time>2020-02-01T22:07:29.311Z</time>
      </trkpt>
      <trkpt lat="45.22256" lon="5.71286">
        <ele>654.2001953125</ele>
        <time>2020-02-01T22:07:32.247Z</time>
      </trkpt>
      <trkpt lat="45.22254" lon="5.71282">
        <ele>655.69140625</ele>
        <time>2020-02-01T22:07:35.184Z</time>
      </trkpt>
      <trkpt lat="45.22254" lon="5.71282">
        <ele>655.70153808594</ele>
        <time>2020-02-01T22:07:38.121Z</time>
      </trkpt>
      <trkpt lat="45.22254" lon="5.71282">
        <ele>655.68023681641</ele>
        <time>2020-02-01T22:07:41.058Z</time>
      </trkpt>
      <trkpt lat="45.22245" lon="5.71279">
        <ele>655.39227294922</ele>
        <time>2020-02-01T22:07:43.998Z</time>
      </trkpt>
      <trkpt lat="45.22213" lon="5.7128">
        <ele>648.34942626953</ele>
        <time>2020-02-01T22:07:46.949Z</time>
      </trkpt>
      <trkpt lat="45.22188" lon="5.71274">
        <ele>645.76800537109</ele>
        <time>2020-02-01T22:07:49.908Z</time>
      </trkpt>
      <trkpt lat="45.2215" lon="5.71245">
        <ele>652.06695556641</ele>
        <time>2020-02-01T22:07:52.882Z</time>
      </trkpt>
      <trkpt lat="45.2214" lon="5.71241">
        <ele>651.85101318359</ele>
        <time>2020-02-01T22:07:55.859Z</time>
      </trkpt>
      <trkpt lat="45.22117" lon="5.71217">
        <ele>656.45635986328</ele>
        <time>2020-02-01T22:07:58.845Z</time>
      </trkpt>
      <trkpt lat="45.22096" lon="5.71187">
        <ele>662.6884765625</ele>
        <time>2020-02-01T22:08:01.841Z</time>
      </trkpt>
      <trkpt lat="45.2204" lon="5.71127">
        <ele>667.86663818359</ele>
        <time>2020-02-01T22:08:04.861Z</time>
      </trkpt>
      <trkpt lat="45.22023" lon="5.71098">
        <ele>672.62982177734</ele>
        <time>2020-02-01T22:08:07.890Z</time>
      </trkpt>
      <trkpt lat="45.22012" lon="5.71054">
        <ele>688.73114013672</ele>
        <time>2020-02-01T22:08:10.930Z</time>
      </trkpt>
      <trkpt lat="45.22002" lon="5.71029">
        <ele>692.09814453125</ele>
        <time>2020-02-01T22:08:13.977Z</time>
      </trkpt>
      <trkpt lat="45.21991" lon="5.71016">
        <ele>690.33447265625</ele>
        <time>2020-02-01T22:08:17.028Z</time>
      </trkpt>
      <trkpt lat="45.21986" lon="5.71001">
        <ele>692.91400146484</ele>
        <time>2020-02-01T22:08:20.083Z</time>
      </trkpt>
      <trkpt lat="45.21983" lon="5.70952">
        <ele>700.12762451172</ele>
        <time>2020-02-01T22:08:23.150Z</time>
      </trkpt>
      <trkpt lat="45.21964" lon="5.70948">
        <ele>690.45721435547</ele>
        <time>2020-02-01T22:08:26.223Z</time>
      </trkpt>
      <trkpt lat="45.21946" lon="5.70947">
        <ele>683.28674316406</ele>
        <time>2020-02-01T22:08:29.302Z</time>
      </trkpt>
      <trkpt lat="45.21898" lon="5.70927">
        <ele>661.62579345703</ele>
        <time>2020-02-01T22:08:32.398Z</time>
      </trkpt>
      <trkpt lat="45.21889" lon="5.70917">
        <ele>658.06243896484</ele>
        <time>2020-02-01T22:08:35.498Z</time>
      </trkpt>
      <trkpt lat="45.2188" lon="5.70923">
        <ele>652.77130126953</ele>
        <time>2020-02-01T22:08:38.601Z</time>
      </trkpt>
      <trkpt lat="45.21869" lon="5.70919">
        <ele>649.50439453125</ele>
        <time>2020-02-01T22:08:41.708Z</time>
      </trkpt>
      <trkpt lat="45.21852" lon="5.70908">
        <ele>645.38909912109</ele>
        <time>2020-02-01T22:08:44.821Z</time>
      </trkpt>
      <trkpt lat="45.21832" lon="5.70914">
        <ele>638.50225830078</ele>
        <time>2020-02-01T22:08:47.941Z</time>
      </trkpt>
      <trkpt lat="45.21822" lon="5.70915">
        <ele>635.18444824219</ele>
        <time>2020-02-01T22:08:51.064Z</time>
      </trkpt>
      <trkpt lat="45.21788" lon="5.70895">
        <ele>625.63372802734</ele>
        <time>2020-02-01T22:08:54.199Z</time>
      </trkpt>
      <trkpt lat="45.21776" lon="5.70883">
        <ele>621.64953613281</ele>
        <time>2020-02-01T22:08:57.339Z</time>
      </trkpt>
      <trkpt lat="45.21772" lon="5.70866">
        <ele>617.97814941406</ele>
        <time>2020-02-01T22:09:00.484Z</time>
      </trkpt>
      <trkpt lat="45.21767" lon="5.70861">
        <ele>615.33856201172</ele>
        <time>2020-02-01T22:09:03.631Z</time>
      </trkpt>
      <trkpt lat="45.21757" lon="5.70855">
        <ele>610.53936767578</ele>
        <time>2020-02-01T22:09:06.781Z</time>
      </trkpt>
      <trkpt lat="45.21741" lon="5.70855">
        <ele>604.01245117188</ele>
        <time>2020-02-01T22:09:09.937Z</time>
      </trkpt>
      <trkpt lat="45.21714" lon="5.7085">
        <ele>592.3984375</ele>
        <time>2020-02-01T22:09:13.102Z</time>
      </trkpt>
      <trkpt lat="45.21702" lon="5.70834">
        <ele>584.14453125</ele>
        <time>2020-02-01T22:09:16.272Z</time>
      </trkpt>
      <trkpt lat="45.21701" lon="5.70835">
        <ele>583.71264648438</ele>
        <time>2020-02-01T22:09:19.443Z</time>
      </trkpt>
      <trkpt lat="45.21694" lon="5.70829">
        <ele>579.12939453125</ele>
        <time>2020-02-01T22:09:22.616Z</time>
      </trkpt>
      <trkpt lat="45.21692" lon="5.70824">
        <ele>577.42565917969</ele>
        <time>2020-02-01T22:09:25.791Z</time>
      </trkpt>
      <trkpt lat="45.21688" lon="5.70824">
        <ele>575.21807861328</ele>
        <time>2020-02-01T22:09:28.967Z</time>
      </trkpt>
      <trkpt lat="45.21686" lon="5.70822">
        <ele>573.87426757812</ele>
        <time>2020-02-01T22:09:32.144Z</time>
      </trkpt>
      <trkpt lat="45.21681" lon="5.70823">
        <ele>571.23474121094</ele>
        <time>2020-02-01T22:09:35.322Z</time>
      </trkpt>
      <trkpt lat="45.21679" lon="5.70819">
        <ele>569.65100097656</ele>
        <time>2020-02-01T22:09:38.502Z</time>
      </trkpt>
      <trkpt lat="45.21676" lon="5.70819">
        <ele>567.99523925781</ele>
        <time>2020-02-01T22:09:41.683Z</time>
      </trkpt>
      <trkpt lat="45.21675" lon="5.70816">
        <ele>567.08343505859</ele>
        <time>2020-02-01T22:09:44.864Z</time>
      </trkpt>
      <trkpt lat="45.21671" lon="5.70817">
        <ele>564.99572753906</ele>
        <time>2020-02-01T22:09:48.047Z</time>
      </trkpt>
      <trkpt lat="45.21671" lon="5.70814">
        <ele>564.63580322266</ele>
        <time>2020-02-01T22:09:51.230Z</time>
      </trkpt>
      <trkpt lat="45.21669" lon="5.70814">
        <ele>563.53198242188</ele>
        <time>2020-02-01T22:09:54.414Z</time>
      </trkpt>
      <trkpt lat="45.2166" lon="5.70798">
        <ele>556.44757080078</ele>
        <time>2020-02-01T22:09:57.603Z</time>
      </trkpt>
      <trkpt lat="45.21654" lon="5.70792">
        <ele>552.20025634766</ele>
        <time>2020-02-01T22:10:00.794Z</time>
      </trkpt>
      <trkpt lat="45.21644" lon="5.70786">
        <ele>545.74536132812</ele>
        <time>2020-02-01T22:10:03.989Z</time>
      </trkpt>
      <trkpt lat="45.21624" lon="5.70781">
        <ele>534.42913818359</ele>
        <time>2020-02-01T22:10:07.191Z</time>
      </trkpt>
      <trkpt lat="45.21626" lon="5.70818">
        <ele>539.42584228516</ele>
        <time>2020-02-01T22:10:10.402Z</time>
      </trkpt>
      <trkpt lat="45.21621" lon="5.7085">
        <ele>538.56201171875</ele>
        <time>2020-02-01T22:10:13.620Z</time>
      </trkpt>
      <trkpt lat="45.21607" lon="5.70893">
        <ele>530.97943115234</ele>
        <time>2020-02-01T22:10:16.849Z</time>
      </trkpt>
      <trkpt lat="45.21586" lon="5.70923">
        <ele>515.17803955078</ele>
        <time>2020-02-01T22:10:20.088Z</time>
      </trkpt>
      <trkpt lat="45.21575" lon="5.70935">
        <ele>507.39135742188</ele>
        <time>2020-02-01T22:10:23.332Z</time>
      </trkpt>
      <trkpt lat="45.21566" lon="5.70953">
        <ele>499.94058227539</ele>
        <time>2020-02-01T22:10:26.581Z</time>
      </trkpt>
      <trkpt lat="45.21556" lon="5.70965">
        <ele>492.71780395508</ele>
        <time>2020-02-01T22:10:29.835Z</time>
      </trkpt>
      <trkpt lat="45.21531" lon="5.70982">
        <ele>480.1809387207</ele>
        <time>2020-02-01T22:10:33.098Z</time>
      </trkpt>
      <trkpt lat="45.21512" lon="5.70992">
        <ele>473.27011108398</ele>
        <time>2020-02-01T22:10:36.368Z</time>
      </trkpt>
      <trkpt lat="45.21488" lon="5.71018">
        <ele>462.87707519531</ele>
        <time>2020-02-01T22:10:39.648Z</time>
      </trkpt>
      <trkpt lat="45.21479" lon="5.71032">
        <ele>458.54577636719</ele>
        <time>2020-02-01T22:10:42.932Z</time>
      </trkpt>
      <trkpt lat="45.21441" lon="5.70963">
        <ele>456.82125854492</ele>
        <time>2020-02-01T22:10:46.237Z</time>
      </trkpt>
      <trkpt lat="45.21433" lon="5.70956">
        <ele>455.20153808594</ele>
        <time>2020-02-01T22:10:49.545Z</time>
      </trkpt>
      <trkpt lat="45.21419" lon="5.70956">
        <ele>451.3381652832</ele>
        <time>2020-02-01T22:10:52.858Z</time>
      </trkpt>
      <trkpt lat="45.21414" lon="5.70963">
        <ele>449.37051391602</ele>
        <time>2020-02-01T22:10:56.173Z</time>
      </trkpt>
      <trkpt lat="45.21408" lon="5.70979">
        <ele>445.94787597656</ele>
        <time>2020-02-01T22:10:59.492Z</time>
      </trkpt>
      <trkpt lat="45.2139" lon="5.71057">
        <ele>434.38934326172</ele>
        <time>2020-02-01T22:11:02.830Z</time>
      </trkpt>
      <trkpt lat="45.21378" lon="5.71058">
        <ele>431.76919555664</ele>
        <time>2020-02-01T22:11:06.173Z</time>
      </trkpt>
      <trkpt lat="45.21374" lon="5.7105">
        <ele>431.35711669922</ele>
        <time>2020-02-01T22:11:09.518Z</time>
      </trkpt>
      <trkpt lat="45.21369" lon="5.71029">
        <ele>432.10098266602</ele>
        <time>2020-02-01T22:11:12.868Z</time>
      </trkpt>
      <trkpt lat="45.21358" lon="5.70997">
        <ele>432.544921875</ele>
        <time>2020-02-01T22:11:16.226Z</time>
      </trkpt>
      <trkpt lat="45.21345" lon="5.70968">
        <ele>432.27655029297</ele>
        <time>2020-02-01T22:11:19.593Z</time>
      </trkpt>
      <trkpt lat="45.21332" lon="5.70949">
        <ele>430.76480102539</ele>
        <time>2020-02-01T22:11:22.966Z</time>
      </trkpt>
      <trkpt lat="45.21302" lon="5.70899">
        <ele>427.64532470703</ele>
        <time>2020-02-01T22:11:26.354Z</time>
      </trkpt>
      <trkpt lat="45.21283" lon="5.70885">
        <ele>423.98461914062</ele>
        <time>2020-02-01T22:11:29.749Z</time>
      </trkpt>
      <trkpt lat="45.21268" lon="5.70878">
        <ele>420.86514282227</ele>
        <time>2020-02-01T22:11:33.150Z</time>
      </trkpt>
      <trkpt lat="45.21257" lon="5.70876">
        <ele>418.20156860352</ele>
        <time>2020-02-01T22:11:36.554Z</time>
      </trkpt>
      <trkpt lat="45.21227" lon="5.70865">
        <ele>411.60269165039</ele>
        <time>2020-02-01T22:11:39.969Z</time>
      </trkpt>
      <trkpt lat="45.21199" lon="5.70846">
        <ele>406.33660888672</ele>
        <time>2020-02-01T22:11:43.394Z</time>
      </trkpt>
      <trkpt lat="45.21192" lon="5.70838">
        <ele>405.36477661133</ele>
        <time>2020-02-01T22:11:46.822Z</time>
      </trkpt>
      <trkpt lat="45.21191" lon="5.70832">
        <ele>405.80871582031</ele>
        <time>2020-02-01T22:11:50.251Z</time>
      </trkpt>
      <trkpt lat="45.21193" lon="5.70824">
        <ele>407.32046508789</ele>
        <time>2020-02-01T22:11:53.682Z</time>
      </trkpt>
      <trkpt lat="45.21215" lon="5.70791">
        <ele>414.27975463867</ele>
        <time>2020-02-01T22:11:57.124Z</time>
      </trkpt>
      <trkpt lat="45.21215" lon="5.7079">
        <ele>414.15979003906</ele>
        <time>2020-02-01T22:12:00.566Z</time>
      </trkpt>
      <trkpt lat="45.21199" lon="5.70797">
        <ele>409.87994384766</ele>
        <time>2020-02-01T22:12:04.014Z</time>
      </trkpt>
      <trkpt lat="45.21159" lon="5.70821">
        <ele>398.29797363281</ele>
        <time>2020-02-01T22:12:07.476Z</time>
      </trkpt>
      <trkpt lat="45.21154" lon="5.70822">
        <ele>396.79821777344</ele>
        <time>2020-02-01T22:12:10.940Z</time>
      </trkpt>
      <trkpt lat="45.21153" lon="5.70816">
        <ele>397.24212646484</ele>
        <time>2020-02-01T22:12:14.406Z</time>
      </trkpt>
      <trkpt lat="45.21154" lon="5.70813">
        <ele>397.87802124023</ele>
        <time>2020-02-01T22:12:17.872Z</time>
      </trkpt>
      <trkpt lat="45.21171" lon="5.70795">
        <ele>401.67330932617</ele>
        <time>2020-02-01T22:12:21.345Z</time>
      </trkpt>
      <trkpt lat="45.21174" lon="5.70777">
        <ele>398.18188476562</ele>
        <time>2020-02-01T22:12:24.823Z</time>
      </trkpt>
      <trkpt lat="45.21216" lon="5.7073">
        <ele>407.02703857422</ele>
        <time>2020-02-01T22:12:28.319Z</time>
      </trkpt>
      <trkpt lat="45.21257" lon="5.70682">
        <ele>403.25595092773</ele>
        <time>2020-02-01T22:12:31.832Z</time>
      </trkpt>
      <trkpt lat="45.21286" lon="5.70636">
        <ele>400.39096069336</ele>
        <time>2020-02-01T22:12:35.360Z</time>
      </trkpt>
      <trkpt lat="45.21298" lon="5.7061">
        <ele>394.27914428711</ele>
        <time>2020-02-01T22:12:38.895Z</time>
      </trkpt>
      <trkpt lat="45.21306" lon="5.70599">
        <ele>392.51544189453</ele>
        <time>2020-02-01T22:12:42.434Z</time>
      </trkpt>
      <trkpt lat="45.21341" lon="5.70569">
        <ele>390.88891601562</ele>
        <time>2020-02-01T22:12:45.987Z</time>
      </trkpt>
      <trkpt lat="45.21373" lon="5.70511">
        <ele>373.236328125</ele>
        <time>2020-02-01T22:12:49.557Z</time>
      </trkpt>
      <trkpt lat="45.21375" lon="5.70507">
        <ele>371.87417602539</ele>
        <time>2020-02-01T22:12:53.128Z</time>
      </trkpt>
      <trkpt lat="45.21376" lon="5.70508">
        <ele>372.28125</ele>
        <time>2020-02-01T22:12:56.699Z</time>
      </trkpt>
      <trkpt lat="45.21376" lon="5.70508">
        <ele>372.21084594727</ele>
        <time>2020-02-01T22:13:00.270Z</time>
      </trkpt>
      <trkpt lat="45.21417" lon="5.70503">
        <ele>374.29330444336</ele>
        <time>2020-02-01T22:13:03.855Z</time>
      </trkpt>
      <trkpt lat="45.2146" lon="5.7053">
        <ele>390.1650390625</ele>
        <time>2020-02-01T22:13:07.456Z</time>
      </trkpt>
      <trkpt lat="45.21507" lon="5.7051">
        <ele>392.66439819336</ele>
        <time>2020-02-01T22:13:11.073Z</time>
      </trkpt>
      <trkpt lat="45.21507" lon="5.7051">
        <ele>392.66027832031</ele>
        <time>2020-02-01T22:13:14.690Z</time>
      </trkpt>
      <trkpt lat="45.21523" lon="5.70477">
        <ele>385.26504516602</ele>
        <time>2020-02-01T22:13:18.317Z</time>
      </trkpt>
      <trkpt lat="45.21525" lon="5.7047">
        <ele>382.84191894531</ele>
        <time>2020-02-01T22:13:21.945Z</time>
      </trkpt>
      <trkpt lat="45.21527" lon="5.70386">
        <ele>373.47207641602</ele>
        <time>2020-02-01T22:13:25.593Z</time>
      </trkpt>
      <trkpt lat="45.2152" lon="5.70373">
        <ele>368.68353271484</ele>
        <time>2020-02-01T22:13:29.245Z</time>
      </trkpt>
      <trkpt lat="45.2151" lon="5.70383">
        <ele>362.53692626953</ele>
        <time>2020-02-01T22:13:32.901Z</time>
      </trkpt>
      <trkpt lat="45.21488" lon="5.70431">
        <ele>356.08883666992</ele>
        <time>2020-02-01T22:13:36.571Z</time>
      </trkpt>
      <trkpt lat="45.21468" lon="5.70451">
        <ele>350.72744750977</ele>
        <time>2020-02-01T22:13:40.249Z</time>
      </trkpt>
      <trkpt lat="45.21472" lon="5.70432">
        <ele>348.29455566406</ele>
        <time>2020-02-01T22:13:43.931Z</time>
      </trkpt>
      <trkpt lat="45.21424" lon="5.70416">
        <ele>332.29733276367</ele>
        <time>2020-02-01T22:13:47.630Z</time>
      </trkpt>
      <trkpt lat="45.21316" lon="5.70352">
        <ele>296.58712768555</ele>
        <time>2020-02-01T22:13:51.368Z</time>
      </trkpt>
      <trkpt lat="45.21316" lon="5.70352">
        <ele>296.58865356445</ele>
        <time>2020-02-01T22:13:55.106Z</time>
      </trkpt>
      <trkpt lat="45.21277" lon="5.70296">
        <ele>274.4475402832</ele>
        <time>2020-02-01T22:13:58.862Z</time>
      </trkpt>
      <trkpt lat="45.21301" lon="5.70219">
        <ele>265.94845581055</ele>
        <time>2020-02-01T22:14:02.638Z</time>
      </trkpt>
      <trkpt lat="45.21314" lon="5.70208">
        <ele>269.61712646484</ele>
        <time>2020-02-01T22:14:06.419Z</time>
      </trkpt>
      <trkpt lat="45.21308" lon="5.70177">
        <ele>263.74728393555</ele>
        <time>2020-02-01T22:14:10.208Z</time>
      </trkpt>
      <trkpt lat="45.21308" lon="5.70177">
        <ele>263.75030517578</ele>
        <time>2020-02-01T22:14:13.997Z</time>
      </trkpt>
      <trkpt lat="45.21306" lon="5.70144">
        <ele>259.32086181641</ele>
        <time>2020-02-01T22:14:17.794Z</time>
      </trkpt>
      <trkpt lat="45.21341" lon="5.70074">
        <ele>256.35626220703</ele>
        <time>2020-02-01T22:14:21.611Z</time>
      </trkpt>
      <trkpt lat="45.21385" lon="5.70031">
        <ele>258.88858032227</ele>
        <time>2020-02-01T22:14:25.446Z</time>
      </trkpt>
      <trkpt lat="45.21448" lon="5.69936">
        <ele>250.90705871582</ele>
        <time>2020-02-01T22:14:29.311Z</time>
      </trkpt>
      <trkpt lat="45.21466" lon="5.69873">
        <ele>234.92938232422</ele>
        <time>2020-02-01T22:14:33.192Z</time>
      </trkpt>
      <trkpt lat="45.21465" lon="5.69867">
        <ele>233.31425476074</ele>
        <time>2020-02-01T22:14:37.075Z</time>
        <extensions>
          <visugpx:TrkExtension xmlns:visugpx="https://www.visugpx.com/editgpx/">
            <visugpx:node>1</visugpx:node>
            </visugpx:TrkExtension>
        </extensions>
      </trkpt>
      <trkpt lat="45.21464" lon="5.69851">
        <ele>216.6</ele>
      </trkpt>
      <trkpt lat="45.21479" lon="5.69831">
        <ele>215</ele>
      </trkpt>
      <trkpt lat="45.21493" lon="5.69797">
        <ele>216.4</ele>
      </trkpt>
      <trkpt lat="45.2151" lon="5.69747">
        <ele>217.8</ele>
      </trkpt>
      <trkpt lat="45.21514" lon="5.69734">
        <ele>217</ele>
      </trkpt>
      <trkpt lat="45.21517" lon="5.69726">
        <ele>216.6</ele>
      </trkpt>
      <trkpt lat="45.2153" lon="5.69701">
        <ele>215.3</ele>
      </trkpt>
      <trkpt lat="45.21547" lon="5.69675">
        <ele>213.7</ele>
      </trkpt>
      <trkpt lat="45.21552" lon="5.69668">
        <ele>213.3</ele>
      </trkpt>
      <trkpt lat="45.21558" lon="5.69664">
        <ele>213.2</ele>
      </trkpt>
      <trkpt lat="45.21599" lon="5.69605">
        <ele>212.2</ele>
        <extensions>
          <visugpx:TrkExtension xmlns:visugpx="https://www.visugpx.com/editgpx/">
            <visugpx:node>2</visugpx:node>
            </visugpx:TrkExtension>
        </extensions>
      </trkpt>
      <trkpt lat="45.2164" lon="5.69548">
        <ele>213.7</ele>
      </trkpt>
      <trkpt lat="45.21643" lon="5.69539">
        <ele>213.3</ele>
      </trkpt>
      <trkpt lat="45.21647" lon="5.69534">
        <ele>213.3</ele>
      </trkpt>
      <trkpt lat="45.21673" lon="5.69499">
        <ele>212.9</ele>
      </trkpt>
      <trkpt lat="45.2168" lon="5.69485">
        <ele>214.2</ele>
      </trkpt>
      <trkpt lat="45.21699" lon="5.69457">
        <ele>215.9</ele>
      </trkpt>
      <trkpt lat="45.21708" lon="5.69447">
        <ele>216</ele>
      </trkpt>
      <trkpt lat="45.21725" lon="5.69422">
        <ele>213.6</ele>
      </trkpt>
      <trkpt lat="45.21727" lon="5.69418">
        <ele>212.9</ele>
      </trkpt>
      <trkpt lat="45.21728" lon="5.69413">
        <ele>212.5</ele>
      </trkpt>
      <trkpt lat="45.21747" lon="5.69395">
        <ele>212.3</ele>
      </trkpt>
      <trkpt lat="45.21745" lon="5.6939">
        <ele>211.9</ele>
      </trkpt>
      <trkpt lat="45.21766" lon="5.69371">
        <ele>213</ele>
        <extensions>
          <visugpx:TrkExtension xmlns:visugpx="https://www.visugpx.com/editgpx/">
            <visugpx:node>3</visugpx:node>
            </visugpx:TrkExtension>
        </extensions>
      </trkpt>
    </trkseg>
  </trk>
</gpx>